sensor_id;sensor_type;location;lat;lon;timestamp;pressure;altitude;pressure_sealevel;temperature;humidity
59240;BME280;45010;53.640;10.578;2022-08-11T00:02:11;101928.44;;;26.84;39.96
59240;BME280;45010;53.640;10.578;2022-08-11T00:05:14;101923.94;;;26.78;40.13
59240;BME280;45010;53.640;10.578;2022-08-11T00:08:26;101923.31;;;26.76;39.67
59240;BME280;45010;53.640;10.578;2022-08-11T00:11:37;101934.22;;;26.81;39.90
59240;BME280;45010;53.640;10.578;2022-08-11T00:14:37;101929.31;;;26.78;40.07
59240;BME280;45010;53.640;10.578;2022-08-11T00:17:38;101933.00;;;26.77;40.24
59240;BME280;45010;53.640;10.578;2022-08-11T00:20:41;101926.88;;;26.69;40.21
59240;BME280;45010;53.640;10.578;2022-08-11T00:23:52;101930.75;;;26.73;40.28
59240;BME280;45010;53.640;10.578;2022-08-11T00:26:53;101914.97;;;26.65;39.92
59240;BME280;45010;53.640;10.578;2022-08-11T00:29:54;101928.50;;;26.70;40.12
59240;BME280;45010;53.640;10.578;2022-08-11T00:32:55;101921.72;;;26.68;40.22
59240;BME280;45010;53.640;10.578;2022-08-11T00:35:59;101913.75;;;26.61;39.87
59240;BME280;45010;53.640;10.578;2022-08-11T00:39:04;101927.31;;;26.66;40.39
59240;BME280;45010;53.640;10.578;2022-08-11T00:42:16;101926.69;;;26.64;40.41
59240;BME280;45010;53.640;10.578;2022-08-11T00:45:50;101909.88;;;26.57;40.05
59240;BME280;45010;53.640;10.578;2022-08-11T01:05:37;101922.47;;;26.50;40.14
59240;BME280;45010;53.640;10.578;2022-08-11T01:09:11;101931.09;;;26.52;40.50
59240;BME280;45010;53.640;10.578;2022-08-11T01:12:25;101917.97;;;26.43;40.09
59240;BME280;45010;53.640;10.578;2022-08-11T01:22:35;101929.91;;;26.48;40.19
59240;BME280;45010;53.640;10.578;2022-08-11T01:25:56;101929.91;;;26.48;40.31
59240;BME280;45010;53.640;10.578;2022-08-11T01:33:07;101920.47;;;26.38;40.21
59240;BME280;45010;53.640;10.578;2022-08-11T01:36:46;101937.75;;;26.42;40.73
59240;BME280;45010;53.640;10.578;2022-08-11T01:43:41;101935.28;;;26.41;40.68
59240;BME280;45010;53.640;10.578;2022-08-11T01:47:14;101932.81;;;26.39;40.64
59240;BME280;45010;53.640;10.578;2022-08-11T01:51:02;101929.75;;;26.36;40.37
59240;BME280;45010;53.640;10.578;2022-08-11T01:54:08;101931.16;;;26.38;40.77
59240;BME280;45010;53.640;10.578;2022-08-11T02:00:38;101926.09;;;26.30;40.80
59240;BME280;45010;53.640;10.578;2022-08-11T02:04:40;101917.25;;;26.23;40.48
59240;BME280;45010;53.640;10.578;2022-08-11T02:08:20;101932.84;;;26.32;40.72
59240;BME280;45010;53.640;10.578;2022-08-11T02:11:27;101907.78;;;26.20;40.78
59240;BME280;45010;53.640;10.578;2022-08-11T02:14:58;101930.41;;;26.31;40.72
59240;BME280;45010;53.640;10.578;2022-08-11T02:18:23;101930.59;;;26.29;40.50
59240;BME280;45010;53.640;10.578;2022-08-11T02:21:54;101920.53;;;26.25;40.76
59240;BME280;45010;53.640;10.578;2022-08-11T02:25:54;101928.13;;;26.28;40.61
59240;BME280;45010;53.640;10.578;2022-08-11T02:29:22;101918.47;;;26.27;40.58
59240;BME280;45010;53.640;10.578;2022-08-11T02:32:28;101927.53;;;26.26;40.76
59240;BME280;45010;53.640;10.578;2022-08-11T02:36:06;101909.03;;;26.17;40.74
59240;BME280;45010;53.640;10.578;2022-08-11T02:39:12;101920.34;;;26.19;40.78
59240;BME280;45010;53.640;10.578;2022-08-11T02:42:41;101918.09;;;26.23;40.62
59240;BME280;45010;53.640;10.578;2022-08-11T02:45:53;101915.19;;;26.18;40.67
59240;BME280;45010;53.640;10.578;2022-08-11T02:49:04;101921.75;;;26.22;40.75
59240;BME280;45010;53.640;10.578;2022-08-11T02:53:00;101919.28;;;26.21;40.63
59240;BME280;45010;53.640;10.578;2022-08-11T03:00:08;101913.16;;;26.13;40.71
59240;BME280;45010;53.640;10.578;2022-08-11T03:03:30;101913.16;;;26.13;40.83
59240;BME280;45010;53.640;10.578;2022-08-11T03:06:58;101920.53;;;26.18;40.58
59240;BME280;45010;53.640;10.578;2022-08-11T03:10:19;101907.22;;;26.11;40.44
59240;BME280;45010;53.640;10.578;2022-08-11T03:13:28;101895.31;;;26.00;40.74
59240;BME280;45010;53.640;10.578;2022-08-11T03:23:26;101906.00;;;26.07;40.76
59240;BME280;45010;53.640;10.578;2022-08-11T03:30:11;101925.50;;;26.14;40.41
59240;BME280;45010;53.640;10.578;2022-08-11T03:36:58;101925.94;;;26.11;40.61
59240;BME280;45010;53.640;10.578;2022-08-11T03:46:35;101917.28;;;26.09;40.41
59240;BME280;45010;53.640;10.578;2022-08-11T03:50:02;101921.00;;;26.08;40.44
59240;BME280;45010;53.640;10.578;2022-08-11T03:53:15;101908.47;;;26.02;40.58
59240;BME280;45010;53.640;10.578;2022-08-11T03:59:39;101908.66;;;26.07;40.53
59240;BME280;45010;53.640;10.578;2022-08-11T04:07:09;101910.75;;;26.05;40.84
59240;BME280;45010;53.640;10.578;2022-08-11T04:17:49;101912.78;;;26.03;40.62
59240;BME280;45010;53.640;10.578;2022-08-11T04:28:47;101906.66;;;25.96;40.65
59240;BME280;45010;53.640;10.578;2022-08-11T04:32:13;101909.50;;;26.01;40.66
59240;BME280;45010;53.640;10.578;2022-08-11T04:53:09;101913.63;;;25.97;40.88
59240;BME280;45010;53.640;10.578;2022-08-11T04:56:32;101907.47;;;25.96;40.91
59240;BME280;45010;53.640;10.578;2022-08-11T05:00:05;101899.47;;;25.89;40.59
59240;BME280;45010;53.640;10.578;2022-08-11T05:06:53;101908.72;;;25.94;40.83
59240;BME280;45010;53.640;10.578;2022-08-11T05:13:35;101909.53;;;25.94;41.06
59240;BME280;45010;53.640;10.578;2022-08-11T05:17:07;101921.06;;;25.95;41.01
59240;BME280;45010;53.640;10.578;2022-08-11T05:20:29;101917.78;;;25.92;40.68
59240;BME280;45010;53.640;10.578;2022-08-11T05:23:54;101916.75;;;25.94;40.87
59240;BME280;45010;53.640;10.578;2022-08-11T05:27:15;101930.09;;;25.94;40.86
59240;BME280;45010;53.640;10.578;2022-08-11T05:30:39;101919.81;;;25.90;41.16
59240;BME280;45010;53.640;10.578;2022-08-11T05:34:08;101921.09;;;25.81;41.37
59240;BME280;45010;53.640;10.578;2022-08-11T05:40:29;101924.03;;;25.66;42.10
59240;BME280;45010;53.640;10.578;2022-08-11T05:43:49;101920.94;;;25.62;42.28
59240;BME280;45010;53.640;10.578;2022-08-11T05:47:09;101912.91;;;25.49;42.58
59240;BME280;45010;53.640;10.578;2022-08-11T05:50:28;101923.19;;;25.52;42.46
59240;BME280;45010;53.640;10.578;2022-08-11T05:53:54;101929.34;;;25.46;42.90
59240;BME280;45010;53.640;10.578;2022-08-11T05:57:20;101920.53;;;25.38;43.15
59240;BME280;45010;53.640;10.578;2022-08-11T06:00:21;101922.38;;;25.38;43.35
59240;BME280;45010;53.640;10.578;2022-08-11T06:03:28;101897.31;;;25.19;43.39
59240;BME280;45010;53.640;10.578;2022-08-11T06:06:29;101927.72;;;25.31;43.48
59240;BME280;45010;53.640;10.578;2022-08-11T06:09:35;101915.63;;;25.22;43.42
59240;BME280;45010;53.640;10.578;2022-08-11T06:12:37;101931.00;;;25.27;43.74
59240;BME280;45010;53.640;10.578;2022-08-11T06:15:48;101927.31;;;25.21;43.99
59240;BME280;45010;53.640;10.578;2022-08-11T06:18:49;101909.66;;;25.06;44.07
59240;BME280;45010;53.640;10.578;2022-08-11T06:21:50;101933.88;;;25.25;43.98
59240;BME280;45010;53.640;10.578;2022-08-11T06:24:56;101928.78;;;25.23;43.94
59240;BME280;45010;53.640;10.578;2022-08-11T06:27:58;101927.31;;;25.21;43.92
59240;BME280;45010;53.640;10.578;2022-08-11T06:31:01;101929.34;;;25.19;44.13
59240;BME280;45010;53.640;10.578;2022-08-11T06:34:11;101934.09;;;25.17;44.24
59240;BME280;45010;53.640;10.578;2022-08-11T06:37:26;101913.34;;;25.05;44.21
59240;BME280;45010;53.640;10.578;2022-08-11T06:40:45;101925.88;;;25.11;44.42
59240;BME280;45010;53.640;10.578;2022-08-11T06:47:13;101936.34;;;25.06;44.70
59240;BME280;45010;53.640;10.578;2022-08-11T06:50:17;101925.66;;;25.06;44.69
59240;BME280;45010;53.640;10.578;2022-08-11T06:53:59;101936.75;;;25.03;44.50
59240;BME280;45010;53.640;10.578;2022-08-11T06:57:01;101923.59;;;24.95;44.72
59240;BME280;45010;53.640;10.578;2022-08-11T07:00:21;101913.97;;;24.87;45.18
59240;BME280;45010;53.640;10.578;2022-08-11T07:03:32;101931.44;;;25.03;45.31
59240;BME280;45010;53.640;10.578;2022-08-11T07:09:52;101927.72;;;25.18;44.93
59240;BME280;45010;53.640;10.578;2022-08-11T07:13:15;101914.97;;;25.20;44.83
59240;BME280;45010;53.640;10.578;2022-08-11T07:16:40;101927.72;;;25.31;44.75
59240;BME280;45010;53.640;10.578;2022-08-11T07:19:49;101932.22;;;25.37;44.80
59240;BME280;45010;53.640;10.578;2022-08-11T07:23:09;101907.19;;;25.32;44.56
59240;BME280;45010;53.640;10.578;2022-08-11T07:26:28;101922.97;;;25.47;44.71
59240;BME280;45010;53.640;10.578;2022-08-11T07:29:49;101923.19;;;25.52;44.70
59240;BME280;45010;53.640;10.578;2022-08-11T07:33:00;101919.09;;;25.56;44.56
59240;BME280;45010;53.640;10.578;2022-08-11T07:36:03;101914.78;;;25.55;44.79
59240;BME280;45010;53.640;10.578;2022-08-11T07:39:07;101925.84;;;25.65;44.57
59240;BME280;45010;53.640;10.578;2022-08-11T07:42:12;101921.50;;;25.71;44.27
59240;BME280;45010;53.640;10.578;2022-08-11T07:45:14;101916.59;;;25.75;44.10
59240;BME280;45010;53.640;10.578;2022-08-11T07:48:33;101922.94;;;25.81;44.26
59240;BME280;45010;53.640;10.578;2022-08-11T07:51:53;101927.03;;;25.83;44.30
59240;BME280;45010;53.640;10.578;2022-08-11T07:55:14;101925.38;;;25.89;43.98
59240;BME280;45010;53.640;10.578;2022-08-11T07:58:16;101900.13;;;25.78;43.96
59240;BME280;45010;53.640;10.578;2022-08-11T08:01:35;101924.31;;;25.97;44.03
59240;BME280;45010;53.640;10.578;2022-08-11T08:04:55;101923.91;;;26.00;44.12
59240;BME280;45010;53.640;10.578;2022-08-11T08:08:15;101926.16;;;26.03;43.63
59240;BME280;45010;53.640;10.578;2022-08-11T08:11:34;101937.03;;;26.08;43.60
59240;BME280;45010;53.640;10.578;2022-08-11T08:14:54;101923.06;;;26.06;43.89
59240;BME280;45010;53.640;10.578;2022-08-11T08:18:14;101913.81;;;26.02;43.25
59240;BME280;45010;53.640;10.578;2022-08-11T08:21:14;101930.19;;;26.19;43.29
59240;BME280;45010;53.640;10.578;2022-08-11T08:24:17;101934.97;;;26.24;42.97
59240;BME280;45010;53.640;10.578;2022-08-11T08:27:19;101934.50;;;26.27;43.33
59240;BME280;45010;53.640;10.578;2022-08-11T08:30:21;101930.41;;;26.31;42.76
59240;BME280;45010;53.640;10.578;2022-08-11T08:33:41;101933.66;;;26.33;42.61
59240;BME280;45010;53.640;10.578;2022-08-11T08:36:43;101913.13;;;26.27;42.56
59240;BME280;45010;53.640;10.578;2022-08-11T08:39:45;101925.81;;;26.38;42.85
59240;BME280;45010;53.640;10.578;2022-08-11T08:42:48;101925.41;;;26.41;42.89
59240;BME280;45010;53.640;10.578;2022-08-11T08:45:54;101928.22;;;26.46;42.62
59240;BME280;45010;53.640;10.578;2022-08-11T08:48:59;101921.44;;;26.51;42.75
59240;BME280;45010;53.640;10.578;2022-08-11T08:52:03;101918.34;;;26.54;42.72
59240;BME280;45010;53.640;10.578;2022-08-11T08:55:06;101914.63;;;26.55;42.78
59240;BME280;45010;53.640;10.578;2022-08-11T08:58:08;101919.13;;;26.61;42.22
59240;BME280;45010;53.640;10.578;2022-08-11T09:01:10;101903.25;;;26.59;42.33
59240;BME280;45010;53.640;10.578;2022-08-11T09:04:12;101902.59;;;26.64;41.96
59240;BME280;45010;53.640;10.578;2022-08-11T09:07:17;101912.44;;;26.70;42.28
59240;BME280;45010;53.640;10.578;2022-08-11T09:10:22;101909.16;;;26.75;42.40
59240;BME280;45010;53.640;10.578;2022-08-11T09:13:23;101913.25;;;26.78;41.97
59240;BME280;45010;53.640;10.578;2022-08-11T09:16:23;101905.81;;;26.80;42.01
59240;BME280;45010;53.640;10.578;2022-08-11T09:19:25;101909.91;;;26.82;41.72
59240;BME280;45010;53.640;10.578;2022-08-11T09:22:26;101900.84;;;26.83;41.75
59240;BME280;45010;53.640;10.578;2022-08-11T09:25:53;101898.38;;;26.82;41.90
59240;BME280;45010;53.640;10.578;2022-08-11T09:29:13;101897.50;;;26.88;41.69
59240;BME280;45010;53.640;10.578;2022-08-11T09:32:13;101893.38;;;26.92;41.64
59240;BME280;45010;53.640;10.578;2022-08-11T09:35:20;101892.97;;;26.95;41.63
59240;BME280;45010;53.640;10.578;2022-08-11T09:38:23;101883.88;;;26.96;41.48
59240;BME280;45010;53.640;10.578;2022-08-11T09:41:44;101880.97;;;26.98;41.28
59240;BME280;45010;53.640;10.578;2022-08-11T09:44:44;101882.38;;;27.01;41.49
59240;BME280;45010;53.640;10.578;2022-08-11T09:47:48;101872.31;;;27.03;41.36
59240;BME280;45010;53.640;10.578;2022-08-11T09:50:51;101864.09;;;26.97;41.44
59240;BME280;45010;53.640;10.578;2022-08-11T09:53:52;101870.22;;;27.05;41.51
59240;BME280;45010;53.640;10.578;2022-08-11T09:56:53;101849.94;;;26.90;41.29
59240;BME280;45010;53.640;10.578;2022-08-11T10:00:13;101869.78;;;27.08;41.33
59240;BME280;45010;53.640;10.578;2022-08-11T10:03:21;101853.31;;;27.04;41.58
59240;BME280;45010;53.640;10.578;2022-08-11T10:06:22;101849.53;;;27.12;41.52
59240;BME280;45010;53.640;10.578;2022-08-11T10:09:51;101856.53;;;27.13;41.69
59240;BME280;45010;53.640;10.578;2022-08-11T10:13:02;101861.47;;;27.16;41.65
59240;BME280;45010;53.640;10.578;2022-08-11T10:16:07;101858.31;;;27.19;41.29
59240;BME280;45010;53.640;10.578;2022-08-11T10:19:09;101850.06;;;27.21;41.71
59240;BME280;45010;53.640;10.578;2022-08-11T10:22:10;101855.00;;;27.24;41.32
59240;BME280;45010;53.640;10.578;2022-08-11T10:25:32;101846.75;;;27.25;41.73
59240;BME280;45010;53.640;10.578;2022-08-11T10:28:52;101816.00;;;27.09;42.06
59240;BME280;45010;53.640;10.578;2022-08-11T10:31:54;101837.44;;;27.28;41.79
59240;BME280;45010;53.640;10.578;2022-08-11T10:35:14;101826.34;;;27.24;41.99
59240;BME280;45010;53.640;10.578;2022-08-11T10:38:15;101822.19;;;27.29;41.61
59240;BME280;45010;53.640;10.578;2022-08-11T10:41:16;101823.38;;;27.33;41.49
59240;BME280;45010;53.640;10.578;2022-08-11T10:44:37;101813.09;;;27.30;41.50
59240;BME280;45010;53.640;10.578;2022-08-11T10:47:39;101834.25;;;27.38;41.76
59240;BME280;45010;53.640;10.578;2022-08-11T10:50:44;101823.53;;;27.38;41.71
59240;BME280;45010;53.640;10.578;2022-08-11T10:54:04;101819.56;;;27.40;41.66
59240;BME280;45010;53.640;10.578;2022-08-11T10:57:23;101827.38;;;27.42;41.57
59240;BME280;45010;53.640;10.578;2022-08-11T11:00:43;101793.78;;;27.28;41.39
59240;BME280;45010;53.640;10.578;2022-08-11T11:03:45;101791.84;;;27.35;41.33
59240;BME280;45010;53.640;10.578;2022-08-11T11:07:09;101805.75;;;27.44;41.33
59240;BME280;45010;53.640;10.578;2022-08-11T11:10:14;101800.03;;;27.40;41.51
59240;BME280;45010;53.640;10.578;2022-08-11T11:13:15;101801.66;;;27.41;41.28
59240;BME280;45010;53.640;10.578;2022-08-11T11:16:39;101804.25;;;27.48;40.91
59240;BME280;45010;53.640;10.578;2022-08-11T11:20:00;101805.69;;;27.50;41.37
59240;BME280;45010;53.640;10.578;2022-08-11T11:23:06;101811.63;;;27.52;41.09
59240;BME280;45010;53.640;10.578;2022-08-11T11:26:30;101802.53;;;27.53;40.81
59240;BME280;45010;53.640;10.578;2022-08-11T11:30:02;101801.47;;;27.55;40.72
59240;BME280;45010;53.640;10.578;2022-08-11T11:33:10;101771.59;;;27.39;40.80
59240;BME280;45010;53.640;10.578;2022-08-11T11:36:27;101798.41;;;27.58;40.90
59240;BME280;45010;53.640;10.578;2022-08-11T11:39:31;101794.66;;;27.59;40.74
59240;BME280;45010;53.640;10.578;2022-08-11T11:42:32;101803.28;;;27.61;40.65
59240;BME280;45010;53.640;10.578;2022-08-11T11:45:32;101803.91;;;27.63;40.62
59240;BME280;45010;53.640;10.578;2022-08-11T11:48:34;101799.97;;;27.65;40.69
59240;BME280;45010;53.640;10.578;2022-08-11T11:51:35;101793.84;;;27.58;40.71
59240;BME280;45010;53.640;10.578;2022-08-11T11:54:36;101804.06;;;27.68;40.56
59240;BME280;45010;53.640;10.578;2022-08-11T11:57:38;101798.44;;;27.70;40.96
59240;BME280;45010;53.640;10.578;2022-08-11T12:00:57;101796.59;;;27.70;40.49
59240;BME280;45010;53.640;10.578;2022-08-11T12:04:16;101792.84;;;27.71;40.63
59240;BME280;45010;53.640;10.578;2022-08-11T12:07:20;101787.50;;;27.71;40.83
59240;BME280;45010;53.640;10.578;2022-08-11T12:10:54;101769.88;;;27.63;40.99
59240;BME280;45010;53.640;10.578;2022-08-11T12:14:16;101785.41;;;27.73;41.13
59240;BME280;45010;53.640;10.578;2022-08-11T12:17:18;101783.34;;;27.75;41.20
59240;BME280;45010;53.640;10.578;2022-08-11T12:20:18;101784.97;;;27.76;40.90
59240;BME280;45010;53.640;10.578;2022-08-11T12:23:20;101779.38;;;27.78;41.05
59240;BME280;45010;53.640;10.578;2022-08-11T12:26:39;101754.63;;;27.64;41.10
59240;BME280;45010;53.640;10.578;2022-08-11T12:30:07;101772.75;;;27.81;41.84
59240;BME280;45010;53.640;10.578;2022-08-11T12:33:08;101776.22;;;27.81;41.98
59240;BME280;45010;53.640;10.578;2022-08-11T12:36:09;101762.81;;;27.81;41.91
59240;BME280;45010;53.640;10.578;2022-08-11T12:39:19;101760.25;;;27.74;42.04
59240;BME280;45010;53.640;10.578;2022-08-11T12:42:43;101759.78;;;27.77;41.71
59240;BME280;45010;53.640;10.578;2022-08-11T12:46:06;101736.91;;;27.63;42.21
59240;BME280;45010;53.640;10.578;2022-08-11T12:49:15;101762.25;;;27.79;42.22
59240;BME280;45010;53.640;10.578;2022-08-11T12:52:42;101751.31;;;27.81;42.17
59240;BME280;45010;53.640;10.578;2022-08-11T12:55:43;101740.31;;;27.82;41.70
59240;BME280;45010;53.640;10.578;2022-08-11T12:59:02;101749.19;;;27.83;41.80
59240;BME280;45010;53.640;10.578;2022-08-11T13:02:23;101737.44;;;27.84;42.22
59240;BME280;45010;53.640;10.578;2022-08-11T13:05:42;101726.34;;;27.80;42.34
59240;BME280;45010;53.640;10.578;2022-08-11T13:08:45;101733.69;;;27.85;41.80
59240;BME280;45010;53.640;10.578;2022-08-11T13:11:47;101739.06;;;27.85;42.06
59240;BME280;45010;53.640;10.578;2022-08-11T13:15:07;101735.31;;;27.86;41.59
59240;BME280;45010;53.640;10.578;2022-08-11T13:18:09;101700.91;;;27.71;41.56
59240;BME280;45010;53.640;10.578;2022-08-11T13:21:12;101724.16;;;27.89;41.59
59240;BME280;45010;53.640;10.578;2022-08-11T13:24:13;101733.25;;;27.88;41.46
59240;BME280;45010;53.640;10.578;2022-08-11T13:27:17;101725.00;;;27.89;41.09
59240;BME280;45010;53.640;10.578;2022-08-11T13:30:18;101706.75;;;27.79;41.36
59240;BME280;45010;53.640;10.578;2022-08-11T13:33:40;101695.00;;;27.81;41.22
59240;BME280;45010;53.640;10.578;2022-08-11T13:36:42;101714.63;;;27.93;41.34
59240;BME280;45010;53.640;10.578;2022-08-11T13:39:44;101706.31;;;27.95;40.95
59240;BME280;45010;53.640;10.578;2022-08-11T13:42:49;101708.78;;;27.96;41.39
59240;BME280;45010;53.640;10.578;2022-08-11T13:45:51;101700.50;;;27.98;40.94
59240;BME280;45010;53.640;10.578;2022-08-11T13:49:15;101704.59;;;28.00;40.92
59240;BME280;45010;53.640;10.578;2022-08-11T13:52:16;101699.25;;;28.00;40.82
59240;BME280;45010;53.640;10.578;2022-08-11T13:55:17;101697.13;;;28.02;41.03
59240;BME280;45010;53.640;10.578;2022-08-11T13:58:22;101697.13;;;28.02;40.93
59240;BME280;45010;53.640;10.578;2022-08-11T14:01:29;101696.69;;;28.05;41.02
59240;BME280;45010;53.640;10.578;2022-08-11T14:04:48;101698.75;;;28.03;40.60
59240;BME280;45010;53.640;10.578;2022-08-11T14:07:52;101664.00;;;27.85;40.78
59240;BME280;45010;53.640;10.578;2022-08-11T14:11:00;101683.38;;;27.99;41.09
59240;BME280;45010;53.640;10.578;2022-08-11T14:14:25;101667.16;;;27.93;41.05
59240;BME280;45010;53.640;10.578;2022-08-11T14:17:30;101676.72;;;28.01;40.87
59240;BME280;45010;53.640;10.578;2022-08-11T14:20:33;101678.97;;;28.04;40.97
59240;BME280;45010;53.640;10.578;2022-08-11T14:23:53;101679.06;;;28.10;40.66
59240;BME280;45010;53.640;10.578;2022-08-11T14:26:58;101680.72;;;28.11;40.74
59240;BME280;45010;53.640;10.578;2022-08-11T14:29:59;101683.41;;;28.11;40.87
59240;BME280;45010;53.640;10.578;2022-08-11T14:33:00;101678.03;;;28.11;40.36
59240;BME280;45010;53.640;10.578;2022-08-11T14:36:02;101679.66;;;28.12;40.56
59240;BME280;45010;53.640;10.578;2022-08-11T14:39:11;101645.25;;;27.97;40.47
59240;BME280;45010;53.640;10.578;2022-08-11T14:42:14;101677.56;;;28.14;40.22
59240;BME280;45010;53.640;10.578;2022-08-11T14:45:34;101682.91;;;28.14;40.59
59240;BME280;45010;53.640;10.578;2022-08-11T14:48:53;101683.75;;;28.14;40.51
59240;BME280;45010;53.640;10.578;2022-08-11T14:51:54;101673.81;;;28.15;40.20
59240;BME280;45010;53.640;10.578;2022-08-11T14:54:56;101678.13;;;28.16;40.59
59240;BME280;45010;53.640;10.578;2022-08-11T14:58:19;101681.66;;;28.16;40.06
59240;BME280;45010;53.640;10.578;2022-08-11T15:01:19;101669.28;;;28.15;40.01
59240;BME280;45010;53.640;10.578;2022-08-11T15:04:38;101655.28;;;28.01;40.04
59240;BME280;45010;53.640;10.578;2022-08-11T15:07:39;101674.31;;;28.12;40.53
59240;BME280;45010;53.640;10.578;2022-08-11T15:10:40;101675.94;;;28.13;40.77
59240;BME280;45010;53.640;10.578;2022-08-11T15:13:41;101674.88;;;28.14;40.66
59240;BME280;45010;53.640;10.578;2022-08-11T15:16:43;101669.28;;;28.15;40.46
59240;BME280;45010;53.640;10.578;2022-08-11T15:20:06;101652.50;;;28.08;40.58
59240;BME280;45010;53.640;10.578;2022-08-11T15:23:27;101648.41;;;28.05;40.92
59240;BME280;45010;53.640;10.578;2022-08-11T15:26:46;101659.84;;;28.13;40.98
59240;BME280;45010;53.640;10.578;2022-08-11T15:30:07;101664.28;;;28.19;40.85
59240;BME280;45010;53.640;10.578;2022-08-11T15:33:27;101661.59;;;28.19;41.01
59240;BME280;45010;53.640;10.578;2022-08-11T15:36:48;101650.75;;;28.14;40.58
59240;BME280;45010;53.640;10.578;2022-08-11T15:40:15;101654.38;;;28.19;40.91
59240;BME280;45010;53.640;10.578;2022-08-11T15:43:42;101650.88;;;28.19;41.01
59240;BME280;45010;53.640;10.578;2022-08-11T15:47:04;101643.75;;;28.13;40.91
59240;BME280;45010;53.640;10.578;2022-08-11T15:50:05;101644.66;;;28.18;40.59
59240;BME280;45010;53.640;10.578;2022-08-11T15:53:17;101653.53;;;28.19;40.51
59240;BME280;45010;53.640;10.578;2022-08-11T15:56:22;101649.81;;;28.20;40.68
59240;BME280;45010;53.640;10.578;2022-08-11T15:59:24;101639.91;;;28.20;40.53
59240;BME280;45010;53.640;10.578;2022-08-11T16:02:44;101641.53;;;28.22;40.03
59240;BME280;45010;53.640;10.578;2022-08-11T16:05:49;101649.38;;;28.23;40.09
59240;BME280;45010;53.640;10.578;2022-08-11T16:08:50;101634.91;;;28.24;39.81
59240;BME280;45010;53.640;10.578;2022-08-11T16:11:53;101634.09;;;28.24;39.92
59240;BME280;45010;53.640;10.578;2022-08-11T16:15:01;101629.97;;;28.21;39.94
59240;BME280;45010;53.640;10.578;2022-08-11T16:18:24;101632.09;;;28.19;39.70
59240;BME280;45010;53.640;10.578;2022-08-11T16:21:39;101632.47;;;28.23;39.88
59240;BME280;45010;53.640;10.578;2022-08-11T16:24:43;101629.97;;;28.21;39.95
59240;BME280;45010;53.640;10.578;2022-08-11T16:27:47;101639.69;;;28.22;39.87
59240;BME280;45010;53.640;10.578;2022-08-11T16:30:49;101631.63;;;28.22;39.86
59240;BME280;45010;53.640;10.578;2022-08-11T16:33:51;101616.94;;;28.13;39.57
59240;BME280;45010;53.640;10.578;2022-08-11T16:36:53;101625.53;;;28.15;39.73
59240;BME280;45010;53.640;10.578;2022-08-11T16:40:14;101634.78;;;28.19;39.59
59240;BME280;45010;53.640;10.578;2022-08-11T16:43:17;101632.09;;;28.19;39.76
59240;BME280;45010;53.640;10.578;2022-08-11T16:46:37;101634.19;;;28.17;39.46
59240;BME280;45010;53.640;10.578;2022-08-11T16:49:57;101625.91;;;28.06;39.67
59240;BME280;45010;53.640;10.578;2022-08-11T16:52:58;101643.28;;;28.16;39.72
59240;BME280;45010;53.640;10.578;2022-08-11T16:56:00;101633.59;;;28.15;39.58
59240;BME280;45010;53.640;10.578;2022-08-11T16:59:07;101629.28;;;28.14;39.51
59240;BME280;45010;53.640;10.578;2022-08-11T17:02:17;101615.75;;;28.09;39.64
59240;BME280;45010;53.640;10.578;2022-08-11T17:05:50;101623.56;;;28.10;39.94
59240;BME280;45010;53.640;10.578;2022-08-11T17:09:10;101632.44;;;28.11;39.49
59240;BME280;45010;53.640;10.578;2022-08-11T17:12:32;101628.13;;;28.10;39.54
59240;BME280;45010;53.640;10.578;2022-08-11T17:15:56;101634.31;;;28.10;39.63
59240;BME280;45010;53.640;10.578;2022-08-11T17:19:11;101623.69;;;28.03;39.54
59240;BME280;45010;53.640;10.578;2022-08-11T17:22:12;101621.13;;;28.09;39.70
59240;BME280;45010;53.640;10.578;2022-08-11T17:25:31;101619.50;;;28.08;39.51
59240;BME280;45010;53.640;10.578;2022-08-11T17:28:33;101607.59;;;28.03;40.46
59240;BME280;45010;53.640;10.578;2022-08-11T17:31:34;101611.00;;;28.11;40.02
59240;BME280;45010;53.640;10.578;2022-08-11T17:34:57;101612.41;;;28.13;40.28
59240;BME280;45010;53.640;10.578;2022-08-11T17:38:17;101604.09;;;28.15;40.16
59240;BME280;45010;53.640;10.578;2022-08-11T17:41:20;101611.69;;;28.18;39.90
59240;BME280;45010;53.640;10.578;2022-08-11T17:44:40;101605.25;;;28.19;40.16
59240;BME280;45010;53.640;10.578;2022-08-11T17:47:59;101584.63;;;28.08;39.74
59240;BME280;45010;53.640;10.578;2022-08-11T17:51:19;101600.28;;;28.23;39.56
59240;BME280;45010;53.640;10.578;2022-08-11T17:54:39;101602.72;;;28.24;39.76
59240;BME280;45010;53.640;10.578;2022-08-11T17:58:00;101604.34;;;28.25;39.94
59240;BME280;45010;53.640;10.578;2022-08-11T18:01:19;101599.00;;;28.25;39.69
59240;BME280;45010;53.640;10.578;2022-08-11T18:04:22;101596.16;;;28.20;39.50
59240;BME280;45010;53.640;10.578;2022-08-11T18:07:23;101610.91;;;28.29;39.34
59240;BME280;45010;53.640;10.578;2022-08-11T18:10:43;101588.84;;;28.15;38.91
59240;BME280;45010;53.640;10.578;2022-08-11T18:14:05;101606.22;;;28.25;38.40
59240;BME280;45010;53.640;10.578;2022-08-11T18:17:25;101613.56;;;28.29;38.08
59240;BME280;45010;53.640;10.578;2022-08-11T18:20:44;101613.56;;;28.29;37.86
59240;BME280;45010;53.640;10.578;2022-08-11T18:24:07;101604.34;;;28.25;37.54
59240;BME280;45010;53.640;10.578;2022-08-11T18:27:29;101600.63;;;28.26;36.95
59240;BME280;45010;53.640;10.578;2022-08-11T18:30:50;101612.03;;;28.33;37.07